createdAt,value
2022-09-28T00:01:21.119Z,11.48
2022-09-28T00:03:53.805Z,11.42
2022-09-28T00:06:25.492Z,11.40
2022-09-28T00:08:56.223Z,11.30
2022-09-28T00:11:27.742Z,11.30
2022-09-28T00:14:02.748Z,11.30
2022-09-28T00:16:34.649Z,11.30
2022-09-28T00:19:04.651Z,11.30
2022-09-28T00:21:37.545Z,11.30
2022-09-28T00:24:18.282Z,11.30
2022-09-28T00:26:50.631Z,11.30
2022-09-28T00:29:26.325Z,11.20
2022-09-28T00:31:59.706Z,11.20
2022-09-28T00:34:31.523Z,11.10
2022-09-28T00:37:02.656Z,11.10
2022-09-28T00:39:32.420Z,11.10
2022-09-28T00:42:02.885Z,11.10
2022-09-28T00:44:46.432Z,11.04
2022-09-28T00:47:30.963Z,11.00
2022-09-28T00:50:08.559Z,10.90
2022-09-28T00:52:45.757Z,10.84
2022-09-28T00:55:20.497Z,10.80
2022-09-28T00:57:57.027Z,10.80
2022-09-28T01:00:26.446Z,10.80
2022-09-28T01:02:57.381Z,10.72
2022-09-28T01:05:27.458Z,10.70
2022-09-28T01:08:09.761Z,10.60
2022-09-28T01:10:43.182Z,10.50
2022-09-28T01:13:15.410Z,10.50
2022-09-28T01:15:58.958Z,10.50
2022-09-28T01:18:40.656Z,10.48
2022-09-28T01:21:16.548Z,10.40
2022-09-28T01:24:19.842Z,10.40
2022-09-28T01:27:00.997Z,10.30
2022-09-28T01:29:46.299Z,10.20
2022-09-28T01:32:35.200Z,10.18
2022-09-28T01:35:14.321Z,10.14
2022-09-28T01:37:51.928Z,10.14
2022-09-28T01:40:26.972Z,10.20
2022-09-28T01:43:03.991Z,10.20
2022-09-28T01:45:41.832Z,10.30
2022-09-28T01:48:25.051Z,10.30
2022-09-28T01:51:02.622Z,10.30
2022-09-28T01:53:40.119Z,10.30
2022-09-28T01:56:18.761Z,10.30
2022-09-28T01:58:55.292Z,10.40
2022-09-28T02:01:29.700Z,10.38
2022-09-28T02:04:08.546Z,10.40
2022-09-28T02:06:46.365Z,10.40
2022-09-28T02:09:23.498Z,10.48
2022-09-28T02:12:01.331Z,10.50
2022-09-28T02:14:34.651Z,10.40
2022-09-28T02:17:06.248Z,10.40
2022-09-28T02:19:37.505Z,10.38
2022-09-28T02:22:23.157Z,10.30
2022-09-28T02:24:58.943Z,10.30
2022-09-28T02:27:37.724Z,10.30
2022-09-28T02:30:09.923Z,10.30
2022-09-28T02:32:45.042Z,10.20
2022-09-28T02:35:18.417Z,10.20
2022-09-28T02:37:48.158Z,10.20
2022-09-28T02:40:24.089Z,10.12
2022-09-28T02:43:10.185Z,10.10
2022-09-28T02:45:55.128Z,10.00
2022-09-28T02:49:27.316Z,10.00
2022-09-28T02:52:24.189Z,10.04
2022-09-28T02:55:29.662Z,10.10
2022-09-28T02:58:21.355Z,10.10
2022-09-28T03:01:03.243Z,10.18
2022-09-28T03:03:44.235Z,10.20
2022-09-28T03:06:22.890Z,10.20
2022-09-28T03:09:01.109Z,10.20
2022-09-28T03:11:38.770Z,10.20
2022-09-28T03:14:08.929Z,10.30
2022-09-28T03:16:47.618Z,10.30
2022-09-28T03:19:23.124Z,10.40
2022-09-28T03:21:55.044Z,10.40
2022-09-28T03:24:24.795Z,10.40
2022-09-28T03:26:54.175Z,10.40
2022-09-28T03:29:24.804Z,10.42
2022-09-28T03:31:59.128Z,10.50
2022-09-28T03:34:28.315Z,10.52
2022-09-28T03:36:57.528Z,10.60
2022-09-28T03:39:26.663Z,10.70
2022-09-28T03:42:00.673Z,10.74
2022-09-28T03:44:30.998Z,10.80
2022-09-28T03:47:00.466Z,10.80
2022-09-28T03:49:29.606Z,10.80
2022-09-28T03:51:58.732Z,10.80
2022-09-28T03:54:27.973Z,10.84
2022-09-28T03:57:01.203Z,10.90
2022-09-28T03:59:49.932Z,10.98
2022-09-28T04:02:19.354Z,11.00
2022-09-28T04:04:48.627Z,11.00
2022-09-28T04:07:17.809Z,11.00
2022-09-28T04:09:46.986Z,11.00
2022-09-28T04:12:16.162Z,10.98
2022-09-28T04:14:45.387Z,11.00
2022-09-28T04:17:14.580Z,11.00
2022-09-28T04:19:43.772Z,11.00
2022-09-28T04:22:34.093Z,11.10
2022-09-28T04:25:04.106Z,11.10
2022-09-28T04:27:51.822Z,11.10
2022-09-28T04:30:21.661Z,11.10
2022-09-28T04:32:51.446Z,11.10
2022-09-28T04:35:21.229Z,11.10
2022-09-28T04:37:50.523Z,11.10
2022-09-28T04:40:19.773Z,11.20
2022-09-28T04:42:55.899Z,11.20
2022-09-28T04:45:26.335Z,11.30
2022-09-28T04:47:57.281Z,11.30
2022-09-28T04:50:54.767Z,11.30
2022-09-28T04:53:26.380Z,11.30
2022-09-28T04:56:01.552Z,11.30
2022-09-28T04:58:31.650Z,11.26
2022-09-28T05:01:04.665Z,11.30
2022-09-28T05:03:56.774Z,11.30
2022-09-28T05:06:52.064Z,11.30
2022-09-28T05:09:21.377Z,11.30
2022-09-28T05:11:52.426Z,11.30
2022-09-28T05:14:22.591Z,11.30
2022-09-28T05:16:51.941Z,11.30
2022-09-28T05:19:30.145Z,11.36
2022-09-28T05:22:05.502Z,11.40
2022-09-28T05:24:41.075Z,11.40
2022-09-28T05:27:11.331Z,11.40
2022-09-28T05:29:40.847Z,11.46
2022-09-28T05:32:42.328Z,11.50
2022-09-28T05:35:31.590Z,11.54
2022-09-28T05:38:05.132Z,11.60
2022-09-28T05:40:35.579Z,11.70
2022-09-28T05:43:04.916Z,11.70
2022-09-28T05:45:34.746Z,11.80
2022-09-28T05:48:05.811Z,11.80
2022-09-28T05:50:35.208Z,11.82
2022-09-28T05:53:07.802Z,11.90
2022-09-28T05:55:39.396Z,11.92
2022-09-28T05:58:09.164Z,12.00
2022-09-28T06:00:38.517Z,12.10
2022-09-28T06:03:12.796Z,12.14
2022-09-28T06:05:42.138Z,12.22
2022-09-28T06:08:11.794Z,12.40
2022-09-28T06:10:45.454Z,12.50
2022-09-28T06:13:15.717Z,12.66
2022-09-28T06:15:46.028Z,12.80
2022-09-28T06:18:16.467Z,12.90
2022-09-28T06:21:05.265Z,13.08
2022-09-28T06:23:41.042Z,13.12
2022-09-28T06:26:12.082Z,13.30
2022-09-28T06:28:41.520Z,13.40
2022-09-28T06:31:11.707Z,13.50
2022-09-28T06:33:50.171Z,13.60
2022-09-28T06:36:20.585Z,13.60
2022-09-28T06:38:49.825Z,13.70
2022-09-28T06:41:19.293Z,13.70
2022-09-28T06:43:49.941Z,13.74
2022-09-28T06:46:38.757Z,13.80
2022-09-28T06:49:29.802Z,13.72
2022-09-28T06:52:17.330Z,13.70
2022-09-28T06:55:09.805Z,13.70
2022-09-28T06:57:47.766Z,13.70
2022-09-28T07:00:18.652Z,13.70
2022-09-28T07:02:49.972Z,13.70
2022-09-28T07:05:37.051Z,13.70
2022-09-28T07:08:32.815Z,13.70
2022-09-28T07:11:28.447Z,13.80
2022-09-28T07:14:40.352Z,13.80
2022-09-28T07:17:15.361Z,13.80
2022-09-28T07:19:45.550Z,13.90
2022-09-28T07:22:18.497Z,13.90
2022-09-28T07:24:48.613Z,13.90
2022-09-28T07:27:43.279Z,13.90
2022-09-28T07:30:35.568Z,13.98
2022-09-28T07:33:13.784Z,14.00
2022-09-28T07:35:55.686Z,14.08
2022-09-28T07:38:30.937Z,14.10
2022-09-28T07:41:13.579Z,14.10
2022-09-28T07:43:47.257Z,14.18
2022-09-28T07:46:17.120Z,14.20
2022-09-28T07:48:54.881Z,14.30
2022-09-28T07:51:36.378Z,14.40
2022-09-28T07:54:40.987Z,14.50
2022-09-28T07:57:22.368Z,14.50
2022-09-28T08:00:16.094Z,14.52
2022-09-28T08:02:47.644Z,14.60
2022-09-28T08:05:23.212Z,14.70
2022-09-28T08:07:52.757Z,14.80
2022-09-28T08:10:37.557Z,14.90
2022-09-28T08:13:27.124Z,15.10
2022-09-28T08:16:16.528Z,15.30
2022-09-28T08:19:04.756Z,15.40
2022-09-28T08:21:45.492Z,15.50
2022-09-28T08:24:17.418Z,15.60
2022-09-28T08:26:46.871Z,15.70
2022-09-28T08:29:18.199Z,15.90
2022-09-28T08:31:53.029Z,16.10
2022-09-28T08:34:52.069Z,16.36
2022-09-28T08:37:55.575Z,16.50
2022-09-28T08:41:03.685Z,16.56
2022-09-28T08:43:56.095Z,16.60
2022-09-28T08:46:40.624Z,16.60
2022-09-28T08:49:43.745Z,16.50
2022-09-28T08:52:36.830Z,16.50
2022-09-28T08:55:19.589Z,16.40
2022-09-28T08:57:58.854Z,16.40
2022-09-28T09:00:38.499Z,16.40
2022-09-28T09:03:14.911Z,16.40
2022-09-28T09:06:03.007Z,16.40
2022-09-28T09:09:02.935Z,16.48
2022-09-28T09:11:49.473Z,16.60
2022-09-28T09:14:41.973Z,16.80
2022-09-28T09:17:19.367Z,16.90
2022-09-28T09:20:11.026Z,17.10
2022-09-28T09:22:59.395Z,17.38
2022-09-28T09:25:38.283Z,17.58
2022-09-28T09:28:37.629Z,17.80
2022-09-28T09:31:22.576Z,18.00
2022-09-28T09:34:17.224Z,18.00
2022-09-28T09:36:57.516Z,18.00
2022-09-28T09:40:00.002Z,18.00
2022-09-28T09:43:01.906Z,18.00
2022-09-28T09:46:02.336Z,17.98
2022-09-28T09:48:45.239Z,17.90
2022-09-28T09:51:22.591Z,17.82
2022-09-28T09:53:59.157Z,17.88
2022-09-28T09:56:33.972Z,17.90
2022-09-28T09:59:13.725Z,17.90
2022-09-28T10:02:03.141Z,18.10
2022-09-28T10:04:43.887Z,18.40
2022-09-28T10:07:25.009Z,18.70
2022-09-28T10:09:57.612Z,18.90
2022-09-28T10:12:42.340Z,19.12
2022-09-28T10:15:18.788Z,19.30
2022-09-28T10:18:03.216Z,19.30
2022-09-28T10:20:50.085Z,19.20
2022-09-28T10:23:36.189Z,19.10
2022-09-28T10:26:09.054Z,19.06
2022-09-28T10:28:48.021Z,18.90
2022-09-28T10:31:37.776Z,18.74
2022-09-28T10:34:13.383Z,18.58
2022-09-28T10:36:49.533Z,18.50
2022-09-28T10:39:42.096Z,18.40
2022-09-28T10:42:17.726Z,18.40
2022-09-28T10:44:53.700Z,18.30
2022-09-28T10:47:37.109Z,18.20
2022-09-28T10:50:19.672Z,18.00
2022-09-28T10:52:48.351Z,17.80
2022-09-28T10:55:36.489Z,17.60
2022-09-28T10:58:26.979Z,17.40
2022-09-28T11:01:05.460Z,17.06
2022-09-28T11:03:40.228Z,16.80
2022-09-28T11:06:09.382Z,16.44
2022-09-28T11:08:42.315Z,16.06
2022-09-28T11:11:16.452Z,15.62
2022-09-28T11:13:49.871Z,15.22
2022-09-28T11:16:40.418Z,14.82
2022-09-28T11:19:30.205Z,14.50
2022-09-28T11:22:11.418Z,14.30
2022-09-28T11:24:42.269Z,14.10
2022-09-28T11:27:25.323Z,14.04
2022-09-28T11:29:57.715Z,14.00
2022-09-28T11:32:31.335Z,13.90
2022-09-28T11:35:21.624Z,13.90
2022-09-28T11:38:07.912Z,13.90
2022-09-28T11:41:14.221Z,13.90
2022-09-28T11:43:56.997Z,13.90
2022-09-28T11:46:32.488Z,13.90
2022-09-28T11:49:19.676Z,13.90
2022-09-28T11:51:50.129Z,13.90
2022-09-28T11:54:35.681Z,13.90
2022-09-28T11:57:18.250Z,13.90
2022-09-28T11:59:56.285Z,13.84
2022-09-28T12:02:30.808Z,13.80
2022-09-28T12:05:20.907Z,13.74
2022-09-28T12:07:57.205Z,13.70
2022-09-28T12:11:04.281Z,13.70
2022-09-28T12:14:22.637Z,13.80
2022-09-28T12:20:22.498Z,13.90
2022-09-28T12:23:03.820Z,13.90
2022-09-28T12:25:39.492Z,13.92
2022-09-28T12:28:13.066Z,14.00
2022-09-28T12:30:45.797Z,14.00
2022-09-28T12:33:17.524Z,14.10
2022-09-28T12:35:58.415Z,14.12
2022-09-28T12:39:14.767Z,14.20
2022-09-28T12:45:38.484Z,14.28
2022-09-28T12:49:03.043Z,14.30
2022-09-28T12:52:26.392Z,14.30
2022-09-28T12:57:56.685Z,14.30
2022-09-28T13:00:30.503Z,14.30
2022-09-28T13:03:35.653Z,14.30
2022-09-28T13:06:34.117Z,14.30
2022-09-28T13:09:27.037Z,14.30
2022-09-28T13:12:13.794Z,14.30
2022-09-28T13:15:22.936Z,14.40
2022-09-28T13:18:00.330Z,14.60
2022-09-28T13:20:37.635Z,14.90
2022-09-28T13:23:16.102Z,15.00
2022-09-28T13:25:52.513Z,15.10
2022-09-28T13:28:26.986Z,15.20
2022-09-28T13:33:36.243Z,15.10
2022-09-28T13:36:26.252Z,15.00
2022-09-28T13:39:00.995Z,14.92
2022-09-28T13:41:37.007Z,14.88
2022-09-28T13:44:35.401Z,14.80
2022-09-28T13:47:29.984Z,14.72
2022-09-28T13:50:17.649Z,14.70
2022-09-28T13:52:54.569Z,14.60
2022-09-28T13:55:36.722Z,14.50
2022-09-28T13:58:18.462Z,14.40
2022-09-28T14:00:51.043Z,14.40
2022-09-28T14:03:41.940Z,14.40
2022-09-28T14:06:31.735Z,14.40
2022-09-28T14:09:25.318Z,14.50
2022-09-28T14:11:59.468Z,14.60
2022-09-28T14:14:43.636Z,14.60
2022-09-28T14:17:50.943Z,14.50
2022-09-28T14:20:24.700Z,14.40
2022-09-28T14:23:35.173Z,14.30
2022-09-28T14:26:42.798Z,14.20
2022-09-28T14:29:27.802Z,14.10
2022-09-28T14:31:58.335Z,14.04
2022-09-28T14:34:36.571Z,14.00
2022-09-28T14:37:36.688Z,13.90
2022-09-28T14:40:36.349Z,13.88
2022-09-28T14:43:30.304Z,13.80
2022-09-28T14:46:46.875Z,13.80
2022-09-28T14:49:48.130Z,13.80
2022-09-28T14:52:40.537Z,13.80
2022-09-28T14:55:14.832Z,13.80
2022-09-28T14:57:44.264Z,13.80
2022-09-28T15:00:20.697Z,13.82
2022-09-28T15:02:52.050Z,13.90
2022-09-28T15:05:27.238Z,13.96
2022-09-28T15:07:56.521Z,14.00
2022-09-28T15:10:31.447Z,14.10
2022-09-28T15:13:02.744Z,14.20
2022-09-28T15:15:35.375Z,14.24
2022-09-28T15:18:28.200Z,14.40
2022-09-28T15:20:57.417Z,14.52
2022-09-28T15:23:35.352Z,14.70
2022-09-28T15:26:06.498Z,14.80
2022-09-28T15:28:38.842Z,14.90
2022-09-28T15:31:16.927Z,15.08
2022-09-28T15:34:03.580Z,16.10
2022-09-28T15:36:34.466Z,17.30
2022-09-28T15:39:05.835Z,18.34
2022-09-28T15:41:34.843Z,19.22
2022-09-28T15:44:07.873Z,19.92
2022-09-28T15:46:39.862Z,20.38
2022-09-28T15:49:22.161Z,20.68
2022-09-28T15:51:52.705Z,20.80
2022-09-28T15:54:26.221Z,20.90
2022-09-28T15:56:57.192Z,20.26
2022-09-28T15:59:31.122Z,19.36
2022-09-28T16:02:14.741Z,18.54
2022-09-28T16:04:49.994Z,17.84
2022-09-28T16:07:38.081Z,17.24
2022-09-28T16:10:30.601Z,16.74
2022-09-28T16:13:09.514Z,16.24
2022-09-28T16:15:39.025Z,15.80
2022-09-28T16:18:19.804Z,15.42
2022-09-28T16:20:50.944Z,15.10
2022-09-28T16:23:23.466Z,14.80
2022-09-28T16:25:58.059Z,14.54
2022-09-28T16:28:50.925Z,14.34
2022-09-28T16:31:37.309Z,14.18
2022-09-28T16:34:19.445Z,14.00
2022-09-28T16:36:49.370Z,13.90
2022-09-28T16:39:18.870Z,13.80
2022-09-28T16:41:56.203Z,13.70
2022-09-28T16:44:27.792Z,13.60
2022-09-28T16:46:59.591Z,13.50
2022-09-28T16:49:30.950Z,13.40
2022-09-28T16:51:59.780Z,13.30
2022-09-28T16:54:48.144Z,13.28
2022-09-28T16:57:17.172Z,13.16
2022-09-28T16:59:45.603Z,13.10
2022-09-28T17:02:42.123Z,13.00
2022-09-28T17:05:12.037Z,12.90
2022-09-28T17:07:40.897Z,12.80
2022-09-28T17:10:17.732Z,12.70
2022-09-28T17:12:46.928Z,12.66
2022-09-28T17:15:18.960Z,12.60
2022-09-28T17:17:48.641Z,12.50
2022-09-28T17:20:21.817Z,12.40
2022-09-28T17:22:50.710Z,12.30
2022-09-28T17:25:19.919Z,12.24
2022-09-28T17:27:49.108Z,12.20
2022-09-28T17:30:22.174Z,12.10
2022-09-28T17:32:54.045Z,12.10
2022-09-28T17:35:25.130Z,12.10
2022-09-28T17:37:54.603Z,12.10
2022-09-28T17:40:25.287Z,12.20
2022-09-28T17:42:55.832Z,12.20
2022-09-28T17:45:26.323Z,12.20
2022-09-28T17:47:55.519Z,12.20
2022-09-28T17:50:25.744Z,12.10
2022-09-28T17:52:57.147Z,12.00
2022-09-28T17:55:29.831Z,11.90
2022-09-28T17:58:00.585Z,11.80
2022-09-28T18:00:33.570Z,11.70
2022-09-28T18:03:02.397Z,11.70
2022-09-28T18:05:30.954Z,11.70
2022-09-28T18:07:59.537Z,11.70
2022-09-28T18:10:30.084Z,11.70
2022-09-28T18:13:02.100Z,11.66
2022-09-28T18:15:52.509Z,11.60
2022-09-28T18:18:21.536Z,11.60
2022-09-28T18:20:50.756Z,11.60
2022-09-28T18:23:19.365Z,11.60
2022-09-28T18:25:48.661Z,11.52
2022-09-28T18:28:17.101Z,11.50
2022-09-28T18:30:47.777Z,11.50
2022-09-28T18:33:28.126Z,11.48
2022-09-28T18:35:57.178Z,11.40
2022-09-28T18:38:26.917Z,11.40
2022-09-28T18:40:56.006Z,11.40
2022-09-28T18:43:24.958Z,11.34
2022-09-28T18:45:55.528Z,11.30
2022-09-28T18:48:29.030Z,11.30
2022-09-28T18:50:58.081Z,11.24
2022-09-28T18:53:28.625Z,11.20
2022-09-28T18:55:57.394Z,11.20
2022-09-28T18:58:27.232Z,11.20
2022-09-28T19:01:28.459Z,11.20
2022-09-28T19:03:54.613Z,11.20
2022-09-28T19:06:23.167Z,11.20
2022-09-28T19:08:57.124Z,11.20
2022-09-28T19:11:26.498Z,11.16
2022-09-28T19:13:56.160Z,11.10
2022-09-28T19:16:26.787Z,11.10
2022-09-28T19:18:56.209Z,11.00
2022-09-28T19:21:25.097Z,11.00
2022-09-28T19:23:54.697Z,11.00
2022-09-28T19:26:26.453Z,11.00
2022-09-28T19:28:57.134Z,11.00
2022-09-28T19:31:33.796Z,11.00
2022-09-28T19:34:03.250Z,11.00
2022-09-28T19:36:33.544Z,11.02
2022-09-28T19:39:03.425Z,11.10
2022-09-28T19:41:50.437Z,11.10
2022-09-28T19:44:23.996Z,11.10
2022-09-28T19:46:54.596Z,11.10
2022-09-28T19:49:24.708Z,11.04
2022-09-28T19:52:12.293Z,11.00
2022-09-28T19:54:43.172Z,10.90
2022-09-28T19:57:12.211Z,10.90
2022-09-28T19:59:40.739Z,10.80
2022-09-28T20:02:10.890Z,10.80
2022-09-28T20:04:39.325Z,10.70
2022-09-28T20:07:07.861Z,10.70
2022-09-28T20:09:36.653Z,10.68
2022-09-28T20:12:05.572Z,10.60
2022-09-28T20:14:39.480Z,10.60
2022-09-28T20:17:10.036Z,10.50
2022-09-28T20:19:39.791Z,10.50
2022-09-28T20:22:08.533Z,10.50
2022-09-28T20:24:37.068Z,10.40
2022-09-28T20:27:06.141Z,10.40
2022-09-28T20:29:51.766Z,10.30
2022-09-28T20:32:22.808Z,10.20
2022-09-28T20:34:51.456Z,10.20
2022-09-28T20:37:19.792Z,10.20
2022-09-28T20:39:48.229Z,10.14
2022-09-28T20:42:16.638Z,10.18
2022-09-28T20:44:45.561Z,10.20
2022-09-28T20:47:14.012Z,10.20
2022-09-28T20:49:43.748Z,10.20
2022-09-28T20:52:12.163Z,10.10
2022-09-28T20:54:42.700Z,10.10
2022-09-28T20:57:16.980Z,10.10
2022-09-28T20:59:47.890Z,10.10
2022-09-28T21:02:19.396Z,10.10
2022-09-28T21:05:03.662Z,10.10
2022-09-28T21:07:58.785Z,10.10
2022-09-28T21:10:52.422Z,10.04
2022-09-28T21:13:22.665Z,10.00
2022-09-28T21:19:52.071Z,9.94
2022-09-28T21:23:24.919Z,10.00
2022-09-28T21:26:02.927Z,10.00
2022-09-28T21:28:34.094Z,10.00
2022-09-28T21:31:17.755Z,10.00
2022-09-28T21:36:57.249Z,9.98
2022-09-28T21:40:13.851Z,9.90
2022-09-28T21:42:51.809Z,9.90
2022-09-28T21:46:05.399Z,9.90
2022-09-28T21:48:51.025Z,9.80
2022-09-28T21:51:19.794Z,9.80
2022-09-28T21:53:48.914Z,9.80
2022-09-28T21:56:17.613Z,9.80
2022-09-28T21:58:46.423Z,9.80
2022-09-28T22:01:17.459Z,9.80
2022-09-28T22:03:47.752Z,9.80
2022-09-28T22:06:18.537Z,9.80
2022-09-28T22:08:48.251Z,9.80
2022-09-28T22:11:19.255Z,9.80
2022-09-28T22:13:49.692Z,9.70
2022-09-28T22:16:20.256Z,9.68
2022-09-28T22:18:49.794Z,9.60
2022-09-28T22:21:20.618Z,9.50
2022-09-28T22:23:49.815Z,9.50
2022-09-28T22:26:22.060Z,9.50
2022-09-28T22:28:52.240Z,9.50
2022-09-28T22:31:22.474Z,9.50
2022-09-28T22:33:51.225Z,9.50
2022-09-28T22:36:19.677Z,9.50
2022-09-28T22:38:49.019Z,9.50
2022-09-28T22:41:20.158Z,9.50
2022-09-28T22:43:49.395Z,9.50
2022-09-28T22:46:18.906Z,9.44
2022-09-28T22:48:49.606Z,9.40
2022-09-28T22:51:18.086Z,9.40
2022-09-28T22:53:47.023Z,9.40
2022-09-28T22:56:18.764Z,9.32
2022-09-28T22:58:48.107Z,9.30
2022-09-28T23:01:18.655Z,9.24
2022-09-28T23:03:47.432Z,9.20
2022-09-28T23:06:17.751Z,9.20
2022-09-28T23:08:46.951Z,9.16
2022-09-28T23:11:15.653Z,9.12
2022-09-28T23:13:47.883Z,9.10
2022-09-28T23:16:16.378Z,9.10
2022-09-28T23:18:45.480Z,9.10
2022-09-28T23:21:15.924Z,9.10
2022-09-28T23:23:45.331Z,9.18
2022-09-28T23:26:15.343Z,9.20
2022-09-28T23:28:44.529Z,9.20
2022-09-28T23:31:15.266Z,9.20
2022-09-28T23:33:44.142Z,9.16
2022-09-28T23:36:12.924Z,9.10
2022-09-28T23:38:41.729Z,9.10
2022-09-28T23:41:10.939Z,9.10
2022-09-28T23:43:39.518Z,9.00
2022-09-28T23:46:08.125Z,9.00
2022-09-28T23:48:36.650Z,8.90
2022-09-28T23:51:05.508Z,8.90
2022-09-28T23:53:33.962Z,8.90
2022-09-28T23:56:02.665Z,8.98
2022-09-28T23:58:31.309Z,9.00
